首页
METAR-TAF:

METAR-TAF

机场 :

亞庇國際機場

亞庇, 马来西亚

纬度: 05-56N, 经度: 116-03E, 海拔: 3米

当前天气观测

该预报发布于40分钟前的01:30 UTC
风速3节,风向西,在西南西转西北之间变化
温度 30°C
湿度 75%
气压 1010 hPa
能见度10公里或以上
少量云层高于1500英尺
多云层高于28000英尺

METAR: WBKK 200130Z 26003KT 230V300 9999 FEW015 BKN280 30/25 Q1010 NOSIG

时间: 10:10 (02:10 UTC)

预报

该预报发布于3小时和10分钟前的23:00 UTC
预报有效从20日的 00点(UTC)到 21日的 00点(UTC)
风速7节,风向西转西北
能见度10公里或以上
少量云层高于1400英尺
短暂存在
从 20日的 09点(UTC)到 20日的 12点(UTC)
能見度: 5000
少量云层高于1200英尺
少量云层高于1600英尺, 积雨云.
散云层高于3500英尺
雷暴, 雨
成为
从 20日的 10点(UTC)到 20日的 12点(UTC)
风速5节,风向东转东南

TAF: WBKK 192300Z 2000/2100 30007KT 9999 FEW014 TEMPO 2009/2012 5000 TSRA FEW012 FEW016CB SCT035 BECMG 2010/2012 12005KT

超过4000个机场的气象观测和天气预报(METAR&TAF报告)。

可查询的气象台以黄色和红色小点在地图上表示。

将鼠标移到小点上方,可查看气象台名称。

然后点击查看天气观测和预报。

如需切换地图:点击带黑十字的绿色按钮放大地图;点击带横线的绿色按钮缩小地图;或者点击绿色箭头查看邻近地区的地图。


METAR-TAF: